Time;durP1;ratioP1;P1;durP2;ratioP2;P2;SDS_P1;SDS_P2;PMS_P1;PMS_P2;Temp;Humidity;BMP_temperature;BMP_pressure;BME280_temperature;BME280_humidity;BME280_pressure;Samples;Min_cycle;Max_cycle;Signal;HPM_P1;HPM_P2
2022/05/27 00:02:10;;;;;;;20.05;5.25;;;15.70;77.70;;;;;;4993021;28;20511;-70
2022/05/27 00:04:36;;;;;;;11.38;3.72;;;15.70;77.70;;;;;;4987546;28;20041;-70
2022/05/27 00:07:03;;;;;;;15.02;4.55;;;15.70;77.60;;;;;;4988220;28;20061;-71
2022/05/27 00:09:29;;;;;;;15.98;4.50;;;15.70;77.90;;;;;;4986615;28;20046;-70
2022/05/27 00:11:54;;;;;;;16.88;5.05;;;15.60;78.00;;;;;;4991491;28;20549;-70
2022/05/27 00:14:20;;;;;;;19.95;5.70;;;15.60;77.80;;;;;;4990217;28;20445;-71
2022/05/27 00:16:46;;;;;;;12.43;4.15;;;15.60;77.90;;;;;;4996044;28;20450;-71
2022/05/27 00:19:12;;;;;;;15.48;5.07;;;15.60;78.00;;;;;;5000676;28;20046;-70
2022/05/27 00:21:37;;;;;;;16.05;4.65;;;15.70;77.80;;;;;;4995902;28;20046;-70
2022/05/27 00:24:04;;;;;;;16.30;4.63;;;15.60;77.80;;;;;;5004256;28;20053;-71
2022/05/27 00:26:29;;;;;;;15.00;4.78;;;15.70;77.70;;;;;;5011620;28;20128;-71
2022/05/27 00:28:55;;;;;;;13.75;4.53;;;15.70;77.60;;;;;;5003164;28;20498;-70
2022/05/27 00:31:20;;;;;;;18.77;4.78;;;15.70;77.80;;;;;;4995610;28;20045;-70
2022/05/27 00:33:47;;;;;;;19.33;5.05;;;15.70;77.60;;;;;;4999269;28;20091;-70
2022/05/27 00:36:14;;;;;;;20.92;4.57;;;15.70;77.60;;;;;;5001706;28;20385;-70
2022/05/27 00:38:41;;;;;;;15.50;4.90;;;15.70;77.50;;;;;;5004518;28;20144;-70
2022/05/27 00:41:08;;;;;;;17.48;5.57;;;15.60;77.40;;;;;;4997853;28;20057;-70
2022/05/27 00:43:34;;;;;;;15.13;5.28;;;15.70;77.60;;;;;;4999361;28;20042;-71
2022/05/27 00:46:22;;;;;;;18.23;5.43;;;15.70;77.60;;;;;;5005151;28;20051;-70
2022/05/27 00:48:52;;;;;;;17.27;5.05;;;15.70;77.50;;;;;;4994788;28;20057;-71
2022/05/27 00:51:22;;;;;;;16.88;5.18;;;15.70;77.50;;;;;;5005282;28;20393;-70
2022/05/27 00:54:01;;;;;;;16.08;5.20;;;15.60;77.90;;;;;;5008199;28;20521;-70
2022/05/27 00:56:32;;;;;;;18.95;4.80;;;15.60;77.80;;;;;;4999144;28;20046;-70
2022/05/27 00:59:06;;;;;;;20.00;5.10;;;15.60;78.00;;;;;;5030464;28;20053;-71
2022/05/27 01:01:32;;;;;;;;;;;15.60;78.00;;;;;;5005043;28;20034;-70
2022/05/27 01:04:00;;;;;;;14.77;4.43;;;15.60;78.00;;;;;;5007045;28;19971;-70
2022/05/27 01:06:25;;;;;;;19.75;4.22;;;15.60;78.10;;;;;;5003449;28;20040;-71
2022/05/27 01:08:52;;;;;;;19.13;5.22;;;15.50;78.30;;;;;;5006997;28;20057;-70
2022/05/27 01:11:45;;;;;;;16.48;5.10;;;15.50;78.30;;;;;;5005252;28;20463;-71
2022/05/27 01:14:44;;;;;;;18.48;4.75;;;15.50;78.40;;;;;;5002959;28;20058;-71
2022/05/27 01:17:26;;;;;;;15.23;4.63;;;15.50;78.50;;;;;;5007089;28;20045;-71
2022/05/27 01:20:19;;;;;;;17.17;4.97;;;15.50;78.70;;;;;;5011048;28;20068;-71
2022/05/27 01:23:03;;;;;;;20.52;5.07;;;15.50;78.70;;;;;;5005107;28;20421;-70
2022/05/27 01:26:01;;;;;;;19.55;5.22;;;15.50;78.70;;;;;;5003890;28;20374;-70
2022/05/27 01:28:36;;;;;;;16.98;5.53;;;15.50;78.80;;;;;;5005325;28;20453;-70
2022/05/27 01:31:36;;;;;;;18.00;4.97;;;15.50;78.60;;;;;;5009568;28;20037;-71
2022/05/27 01:34:21;;;;;;;17.13;5.28;;;15.60;78.40;;;;;;5008716;28;20053;-70
2022/05/27 01:36:57;;;;;;;20.98;5.22;;;15.60;78.40;;;;;;5004024;28;20042;-70
2022/05/27 01:39:49;;;;;;;16.80;5.07;;;15.60;78.70;;;;;;5000751;28;20117;-70
2022/05/27 01:42:26;;;;;;;18.83;4.63;;;15.50;79.10;;;;;;5004057;28;20053;-70
2022/05/27 01:45:11;;;;;;;17.25;4.85;;;15.50;78.90;;;;;;5013499;28;20046;-70
2022/05/27 01:47:53;;;;;;;16.83;4.75;;;15.40;79.40;;;;;;5003702;28;20045;-70
2022/05/27 01:50:35;;;;;;;23.85;5.80;;;15.50;79.10;;;;;;5007493;28;20049;-70
2022/05/27 01:53:13;;;;;;;18.95;6.32;;;15.40;79.50;;;;;;5001878;28;20486;-70
2022/05/27 01:55:49;;;;;;;18.17;5.70;;;15.50;79.30;;;;;;5002592;28;20034;-70
2022/05/27 01:58:21;;;;;;;17.55;5.55;;;15.40;79.40;;;;;;5001532;28;20042;-70
2022/05/27 02:00:48;;;;;;;20.00;5.40;;;15.50;79.20;;;;;;5008163;28;20494;-70
2022/05/27 02:03:35;;;;;;;16.17;5.45;;;15.40;79.60;;;;;;5002324;28;20064;-70
2022/05/27 02:06:16;;;;;;;17.27;5.25;;;15.40;79.70;;;;;;4997936;28;20422;-70
2022/05/27 02:08:56;;;;;;;13.75;5.32;;;15.40;79.80;;;;;;5002353;28;20497;-71
2022/05/27 02:11:23;;;;;;;21.15;5.63;;;15.40;80.00;;;;;;5001861;28;20397;-70
2022/05/27 02:14:03;;;;;;;18.88;6.00;;;15.40;79.90;;;;;;5007036;28;20038;-70
2022/05/27 02:16:37;;;;;;;22.25;5.97;;;15.40;80.10;;;;;;5007282;28;20091;-70
2022/05/27 02:19:28;;;;;;;16.98;5.95;;;15.50;79.90;;;;;;5001444;28;20504;-70
2022/05/27 02:21:59;;;;;;;26.23;6.22;;;15.40;80.00;;;;;;5006391;28;20505;-71
2022/05/27 02:24:37;;;;;;;14.30;5.43;;;15.50;79.90;;;;;;5004631;28;20045;-71
2022/05/27 02:27:23;;;;;;;20.00;6.03;;;15.40;80.20;;;;;;4995867;28;20042;-71
2022/05/27 02:29:53;;;;;;;18.05;6.38;;;15.40;80.40;;;;;;5005667;28;20045;-71
2022/05/27 02:32:36;;;;;;;21.00;6.25;;;15.40;80.30;;;;;;5008044;28;20033;-71
2022/05/27 02:35:18;;;;;;;19.02;5.93;;;15.50;80.30;;;;;;5005125;28;20046;-71
2022/05/27 02:37:53;;;;;;;14.90;5.43;;;15.40;80.50;;;;;;5006598;28;20034;-71
2022/05/27 02:40:28;;;;;;;18.33;6.00;;;15.40;80.70;;;;;;5000935;28;20063;-70
2022/05/27 02:43:20;;;;;;;20.02;6.82;;;15.50;80.40;;;;;;5002380;28;20045;-70
2022/05/27 02:46:27;;;;;;;23.85;7.10;;;15.40;80.80;;;;;;5005460;28;20033;-70
2022/05/27 02:49:06;;;;;;;19.88;7.13;;;15.40;80.70;;;;;;5000931;28;20493;-71
2022/05/27 02:51:53;;;;;;;24.25;7.60;;;15.40;80.80;;;;;;5003761;28;20042;-71
2022/05/27 02:54:33;;;;;;;23.42;6.97;;;15.40;80.70;;;;;;5005633;28;20113;-70
2022/05/27 02:57:27;;;;;;;18.05;5.95;;;15.40;81.00;;;;;;4994748;28;20053;-70
2022/05/27 02:59:54;;;;;;;18.13;6.93;;;15.50;80.80;;;;;;4992791;28;20045;-70
2022/05/27 03:02:20;;;;;;;21.40;6.90;;;15.50;80.70;;;;;;5008230;28;20042;-70
2022/05/27 03:04:52;;;;;;;20.98;6.75;;;15.50;80.70;;;;;;5002704;28;20168;-70
2022/05/27 03:07:51;;;;;;;22.90;6.75;;;15.50;81.00;;;;;;5002652;28;20473;-71
2022/05/27 03:10:49;;;;;;;24.75;7.53;;;15.50;81.00;;;;;;4998412;28;20045;-71
2022/05/27 03:13:54;;;;;;;19.05;7.00;;;15.50;81.10;;;;;;5003009;28;20045;-71
2022/05/27 03:16:42;;;;;;;22.70;7.40;;;15.40;81.30;;;;;;5003379;28;20069;-70
2022/05/27 03:19:36;;;;;;;26.48;7.72;;;15.50;81.50;;;;;;4999673;28;20038;-70
2022/05/27 03:22:44;;;;;;;20.95;7.47;;;15.50;81.50;;;;;;5001712;28;20049;-71
2022/05/27 03:25:34;;;;;;;24.45;7.78;;;15.50;81.80;;;;;;4995532;28;20176;-71
2022/05/27 03:28:18;;;;;;;23.60;8.05;;;15.40;81.90;;;;;;5007473;28;20072;-70
2022/05/27 03:31:21;;;;;;;23.30;7.22;;;15.40;81.90;;;;;;5005055;28;20041;-71
2022/05/27 03:34:02;;;;;;;20.85;7.60;;;15.40;82.30;;;;;;4998019;28;20045;-70
2022/05/27 03:36:36;;;;;;;20.38;7.00;;;15.50;82.10;;;;;;4999334;28;20127;-71
2022/05/27 03:39:11;;;;;;;24.30;8.38;;;15.50;82.10;;;;;;4990125;28;20960;-71
2022/05/27 03:41:43;;;;;;;23.35;8.95;;;15.50;82.20;;;;;;4997620;28;20748;-70
2022/05/27 03:44:18;;;;;;;28.25;8.98;;;15.50;82.10;;;;;;4992349;28;20042;-71
2022/05/27 03:46:44;;;;;;;23.05;10.82;;;15.40;82.60;;;;;;4990111;28;20529;-70
2022/05/27 03:49:10;;;;;;;27.75;10.52;;;15.30;83.50;;;;;;4987272;28;20048;-70
2022/05/27 03:51:43;;;;;;;26.05;10.55;;;15.30;84.00;;;;;;4991119;28;20065;-71
2022/05/27 03:54:11;;;;;;;27.60;11.20;;;15.30;84.40;;;;;;4997585;28;20374;-70
2022/05/27 03:56:41;;;;;;;33.95;13.40;;;15.30;84.80;;;;;;5005460;28;20137;-70
2022/05/27 03:59:09;;;;;;;26.90;12.90;;;15.30;84.90;;;;;;5003065;28;20072;-70
2022/05/27 04:01:37;;;;;;;28.92;13.10;;;15.20;85.50;;;;;;5002140;28;20046;-70
2022/05/27 04:04:05;;;;;;;33.10;14.02;;;15.30;85.80;;;;;;5005085;28;20034;-71
2022/05/27 04:06:31;;;;;;;30.73;13.52;;;15.30;85.90;;;;;;5007204;28;20030;-70
2022/05/27 04:08:57;;;;;;;38.38;14.07;;;15.30;86.00;;;;;;5002076;28;20048;-71
2022/05/27 04:11:24;;;;;;;27.90;13.98;;;15.30;85.90;;;;;;5004388;28;20048;-71
2022/05/27 04:13:50;;;;;;;30.52;13.80;;;15.30;86.30;;;;;;5003257;28;20037;-70
2022/05/27 04:16:16;;;;;;;32.03;13.90;;;15.30;86.40;;;;;;4997997;28;20544;-71
2022/05/27 04:18:42;;;;;;;31.10;13.88;;;15.30;86.70;;;;;;5005255;28;20128;-71
2022/05/27 04:21:09;;;;;;;30.35;13.35;;;15.20;86.70;;;;;;5000653;28;20069;-70
2022/05/27 04:23:35;;;;;;;29.00;12.77;;;15.20;86.80;;;;;;5001698;28;20058;-71
2022/05/27 04:26:01;;;;;;;28.08;12.38;;;15.20;87.10;;;;;;5004081;28;20087;-71
2022/05/27 04:28:26;;;;;;;34.25;12.63;;;15.10;87.50;;;;;;5003614;28;20416;-71
2022/05/27 04:30:52;;;;;;;29.40;13.30;;;15.10;87.50;;;;;;5001227;28;20034;-70
2022/05/27 04:33:18;;;;;;;33.03;13.85;;;15.10;87.90;;;;;;5001637;28;20585;-71
2022/05/27 04:35:44;;;;;;;34.30;13.05;;;15.10;88.00;;;;;;4999440;28;20066;-71
2022/05/27 04:38:09;;;;;;;32.15;13.27;;;15.10;88.10;;;;;;5002926;28;20061;-71
2022/05/27 04:40:35;;;;;;;27.17;12.93;;;15.10;88.00;;;;;;5002890;28;20034;-71
2022/05/27 04:43:02;;;;;;;25.80;11.73;;;15.20;88.30;;;;;;5004723;28;20446;-70
2022/05/27 04:45:29;;;;;;;29.83;13.80;;;15.10;88.00;;;;;;5013502;28;20046;-71
2022/05/27 04:47:55;;;;;;;35.28;13.60;;;15.10;88.10;;;;;;5006412;28;20042;-71
2022/05/27 04:50:21;;;;;;;27.63;12.77;;;15.10;88.20;;;;;;5001500;28;20572;-70
2022/05/27 04:52:47;;;;;;;31.40;12.98;;;15.20;88.30;;;;;;5009937;28;20523;-71
2022/05/27 04:55:15;;;;;;;30.48;11.55;;;15.10;88.10;;;;;;5008317;28;20041;-70
2022/05/27 04:57:50;;;;;;;27.25;11.60;;;15.10;88.10;;;;;;5007029;28;20529;-71
2022/05/27 05:00:22;;;;;;;29.40;11.85;;;15.10;88.00;;;;;;5009810;28;20041;-71
2022/05/27 05:02:49;;;;;;;29.80;11.50;;;15.10;88.30;;;;;;5017129;28;20041;-70
2022/05/27 05:05:17;;;;;;;25.75;10.60;;;15.10;88.30;;;;;;5003095;28;20029;-71
2022/05/27 05:07:47;;;;;;;24.73;10.23;;;15.10;88.30;;;;;;5005222;28;20100;-70
2022/05/27 05:10:17;;;;;;;28.27;10.45;;;15.10;88.00;;;;;;5012630;28;20112;-71
2022/05/27 05:12:44;;;;;;;26.40;9.80;;;15.10;88.20;;;;;;5006330;28;20033;-70
2022/05/27 05:15:10;;;;;;;25.85;10.13;;;15.20;88.00;;;;;;4999748;28;20440;-71
2022/05/27 05:17:36;;;;;;;27.02;10.18;;;15.20;87.70;;;;;;5005859;28;20034;-71
2022/05/27 05:20:04;;;;;;;28.38;10.80;;;15.30;87.60;;;;;;5000488;28;20061;-71
2022/05/27 05:22:30;;;;;;;26.02;11.10;;;15.30;87.50;;;;;;4997201;28;20030;-71
2022/05/27 05:24:56;;;;;;;23.40;9.20;;;15.30;87.30;;;;;;4999903;28;20042;-71
2022/05/27 05:27:27;;;;;;;30.20;9.50;;;15.40;87.30;;;;;;4999476;28;20397;-70
2022/05/27 05:29:54;;;;;;;23.98;8.60;;;15.40;86.90;;;;;;4996072;28;20046;-71
2022/05/27 05:32:20;;;;;;;22.02;8.50;;;15.90;86.00;;;;;;5002533;28;20046;-71
2022/05/27 05:34:46;;;;;;;22.25;8.32;;;16.30;84.10;;;;;;5001490;28;20129;-71
2022/05/27 05:37:12;;;;;;;21.95;7.22;;;16.90;82.70;;;;;;5005064;28;20061;-72
2022/05/27 05:39:38;;;;;;;22.55;7.47;;;17.80;78.90;;;;;;5009666;28;20069;-72
2022/05/27 05:42:05;;;;;;;23.52;6.80;;;18.80;75.70;;;;;;5008004;28;20062;-72
2022/05/27 05:44:32;;;;;;;19.65;6.50;;;19.00;73.40;;;;;;5010472;28;20037;-72
2022/05/27 05:46:58;;;;;;;19.83;6.75;;;19.10;72.70;;;;;;5005554;28;20062;-71
2022/05/27 05:49:24;;;;;;;19.98;6.47;;;18.60;74.40;;;;;;5005218;28;20133;-71
2022/05/27 05:51:51;;;;;;;20.73;6.55;;;18.30;74.60;;;;;;5008809;28;20038;-70
2022/05/27 05:54:19;;;;;;;16.88;6.35;;;17.70;76.90;;;;;;5000896;28;20069;-71
2022/05/27 05:56:44;;;;;;;19.15;6.95;;;17.70;77.50;;;;;;5007026;28;20125;-70
2022/05/27 05:59:10;;;;;;;19.38;6.38;;;17.60;77.90;;;;;;5003609;28;20184;-70
2022/05/27 06:01:35;;;;;;;20.90;6.60;;;17.30;78.20;;;;;;5001622;28;20076;-71
2022/05/27 06:04:01;;;;;;;17.23;6.70;;;17.10;78.80;;;;;;5004481;28;20445;-71
2022/05/27 06:06:27;;;;;;;19.05;6.38;;;17.10;79.40;;;;;;5000457;28;20137;-70
2022/05/27 06:08:52;;;;;;;15.27;6.05;;;16.90;78.80;;;;;;5003550;28;20041;-71
2022/05/27 06:11:18;;;;;;;14.65;5.82;;;16.90;79.40;;;;;;5011462;28;20044;-70
2022/05/27 06:13:44;;;;;;;14.25;6.50;;;16.90;78.90;;;;;;5002372;28;20037;-71
2022/05/27 06:16:10;;;;;;;13.80;6.03;;;17.00;79.30;;;;;;5007635;28;20120;-70
2022/05/27 06:18:36;;;;;;;13.98;5.57;;;16.90;78.50;;;;;;5004498;28;20572;-70
2022/05/27 06:21:02;;;;;;;12.50;5.30;;;17.00;79.00;;;;;;5003798;28;20088;-71
2022/05/27 06:23:28;;;;;;;15.60;4.80;;;17.10;77.80;;;;;;5009912;28;20046;-70
2022/05/27 06:26:00;;;;;;;9.82;4.43;;;17.10;76.80;;;;;;5002282;28;20050;-70
2022/05/27 06:36:41;;;;;;;14.55;5.68;;;17.10;77.60;;;;;;4993054;28;20765;-70
2022/05/27 06:39:07;;;;;;;16.75;6.07;;;17.30;77.10;;;;;;4987892;28;20045;-70
2022/05/27 06:41:34;;;;;;;14.65;5.50;;;17.40;76.70;;;;;;4989675;28;20022;-70
2022/05/27 06:44:00;;;;;;;9.88;3.75;;;17.20;76.40;;;;;;4994277;28;20300;-70
2022/05/27 06:46:26;;;;;;;12.68;4.57;;;17.10;75.80;;;;;;5006465;28;20092;-70
2022/05/27 06:48:52;;;;;;;13.15;4.10;;;16.80;76.50;;;;;;4989567;28;20521;-70
2022/05/27 06:51:20;;;;;;;7.63;4.30;;;16.80;77.10;;;;;;4990603;28;20033;-71
2022/05/27 06:53:46;;;;;;;13.45;4.65;;;17.00;77.10;;;;;;4987345;28;20418;-71
2022/05/27 06:56:13;;;;;;;9.43;4.68;;;17.30;76.80;;;;;;4991809;28;20030;-70
2022/05/27 06:58:40;;;;;;;8.70;3.92;;;17.50;75.60;;;;;;4990287;28;20034;-70
2022/05/27 07:01:07;;;;;;;11.98;4.10;;;17.50;74.60;;;;;;4985613;28;20470;-71
2022/05/27 07:03:32;;;;;;;10.20;4.03;;;17.60;74.10;;;;;;4989221;28;20037;-70
2022/05/27 07:05:58;;;;;;;11.43;4.15;;;18.00;74.10;;;;;;4989070;28;20445;-70
2022/05/27 07:08:24;;;;;;;10.20;3.80;;;18.10;72.00;;;;;;4989171;28;20070;-70
2022/05/27 07:10:49;;;;;;;9.18;3.58;;;18.40;71.60;;;;;;4989718;28;20120;-71
2022/05/27 07:13:15;;;;;;;8.18;3.22;;;18.70;70.80;;;;;;4990176;28;20445;-70
2022/05/27 07:15:42;;;;;;;8.02;3.40;;;18.40;69.10;;;;;;4989926;28;20034;-70
2022/05/27 07:18:08;;;;;;;8.30;3.20;;;18.40;70.00;;;;;;4990022;28;20093;-71
2022/05/27 07:20:37;;;;;;;10.23;3.38;;;18.00;70.10;;;;;;4987393;28;20038;-71
2022/05/27 07:23:06;;;;;;;9.00;3.30;;;17.70;71.80;;;;;;4993855;28;20394;-69
2022/05/27 07:25:35;;;;;;;8.38;3.25;;;17.60;72.30;;;;;;4993803;28;20409;-69
2022/05/27 07:28:11;;;;;;;10.32;2.95;;;17.90;72.30;;;;;;4987942;28;20038;-70
2022/05/27 07:30:37;;;;;;;7.80;3.17;;;18.10;70.20;;;;;;4990374;28;20083;-70
2022/05/27 07:33:03;;;;;;;6.32;2.65;;;18.20;69.70;;;;;;4988885;28;20042;-70
2022/05/27 07:35:29;;;;;;;7.35;3.15;;;18.50;69.10;;;;;;4990404;28;20031;-69
2022/05/27 07:37:55;;;;;;;8.70;3.25;;;18.50;67.60;;;;;;5001652;28;20048;-70
2022/05/27 07:40:21;;;;;;;6.75;2.80;;;18.70;67.30;;;;;;4993160;28;20053;-69
2022/05/27 07:42:48;;;;;;;7.22;2.78;;;18.60;66.20;;;;;;4994978;28;20415;-69
2022/05/27 07:45:15;;;;;;;6.78;2.80;;;18.40;67.30;;;;;;5000643;28;20196;-69
2022/05/27 07:47:42;;;;;;;10.68;3.20;;;18.10;68.20;;;;;;5000670;28;20109;-70
2022/05/27 07:50:11;;;;;;;7.85;2.90;;;18.10;67.90;;;;;;5001307;28;20042;-69
2022/05/27 07:52:36;;;;;;;8.02;2.85;;;18.20;66.70;;;;;;5001787;28;20068;-70
2022/05/27 07:55:04;;;;;;;10.80;3.20;;;18.60;67.30;;;;;;5005034;28;20137;-69
2022/05/27 07:57:29;;;;;;;7.82;2.90;;;18.70;65.60;;;;;;5002845;28;20049;-70
2022/05/27 07:59:55;;;;;;;9.02;2.72;;;18.80;66.40;;;;;;4998310;28;20041;-72
2022/05/27 08:02:25;;;;;;;7.57;3.25;;;18.70;66.50;;;;;;4998491;28;20461;-70
2022/05/27 08:04:52;;;;;;;9.48;3.15;;;18.60;66.00;;;;;;4994139;28;20462;-70
2022/05/27 08:07:17;;;;;;;9.48;3.25;;;18.40;66.90;;;;;;4997568;28;20052;-70
2022/05/27 08:09:43;;;;;;;8.75;2.85;;;18.40;66.60;;;;;;4999859;28;20424;-71
2022/05/27 08:12:10;;;;;;;9.75;2.80;;;18.20;67.00;;;;;;4987868;28;20661;-69
2022/05/27 08:14:36;;;;;;;7.32;2.78;;;18.60;66.80;;;;;;4985130;28;20034;-70
2022/05/27 08:17:03;;;;;;;6.53;2.72;;;18.60;66.20;;;;;;4982466;28;20053;-69
2022/05/27 08:19:28;;;;;;;5.50;2.50;;;18.90;65.50;;;;;;4989728;28;20030;-70
2022/05/27 08:21:54;;;;;;;8.38;3.10;;;18.90;64.50;;;;;;4991436;28;20115;-70
2022/05/27 08:24:20;;;;;;;7.78;3.03;;;18.90;65.10;;;;;;4988029;28;20077;-72
2022/05/27 08:26:47;;;;;;;6.75;2.30;;;19.10;65.50;;;;;;4993388;28;20058;-73
2022/05/27 08:29:13;;;;;;;8.30;2.60;;;19.30;61.80;;;;;;4990906;28;20396;-73
2022/05/27 08:31:39;;;;;;;5.93;2.65;;;19.60;63.00;;;;;;4993073;28;20561;-72
2022/05/27 08:39:37;;;;;;;7.85;3.03;;;19.70;61.50;;;;;;4994598;28;20137;-72
2022/05/27 08:42:14;;;;;;;7.38;3.10;;;19.60;60.80;;;;;;4993910;28;20111;-71
2022/05/27 08:44:57;;;;;;;8.43;3.03;;;19.30;62.00;;;;;;4992546;28;20034;-73
2022/05/27 08:47:35;;;;;;;6.82;3.08;;;19.10;62.60;;;;;;4994628;28;20422;-70
2022/05/27 08:50:22;;;;;;;8.05;3.00;;;19.40;63.20;;;;;;4996729;28;20054;-71
2022/05/27 08:52:54;;;;;;;7.13;2.75;;;19.20;63.60;;;;;;5008134;28;20033;-72
2022/05/27 09:01:12;;;;;;;7.78;2.97;;;18.60;62.30;;;;;;4999820;28;20048;-71
2022/05/27 09:03:45;;;;;;;7.32;2.50;;;18.80;61.90;;;;;;5010283;28;20034;-71
2022/05/27 09:06:12;;;;;;;9.85;3.30;;;19.20;62.10;;;;;;5007538;28;20045;-70
2022/05/27 09:08:39;;;;;;;9.35;2.80;;;19.30;60.50;;;;;;5005322;28;20042;-71
2022/05/27 09:11:16;;;;;;;6.78;3.08;;;19.60;59.40;;;;;;5003072;28;20050;-72
2022/05/27 09:13:48;;;;;;;11.10;2.92;;;19.60;58.50;;;;;;4996194;28;20129;-72
2022/05/27 09:16:21;;;;;;;8.85;2.90;;;19.60;59.90;;;;;;4999365;28;20050;-69
2022/05/27 09:19:14;;;;;;;7.72;2.97;;;19.70;57.90;;;;;;4999291;28;20044;-70
2022/05/27 09:22:02;;;;;;;8.70;3.30;;;19.60;57.80;;;;;;5002199;28;20100;-71
2022/05/27 09:24:40;;;;;;;8.40;3.13;;;19.80;57.80;;;;;;5005450;28;20050;-70
2022/05/27 09:27:21;;;;;;;9.00;3.53;;;20.10;57.90;;;;;;5007420;28;20079;-70
2022/05/27 09:29:53;;;;;;;10.30;3.10;;;20.40;57.90;;;;;;5005295;28;20048;-71
2022/05/27 09:32:27;;;;;;;10.98;3.38;;;20.10;56.10;;;;;;5002129;28;20069;-70
2022/05/27 09:34:56;;;;;;;10.02;2.85;;;20.20;55.30;;;;;;5002184;28;20034;-71
2022/05/27 09:37:31;;;;;;;11.98;3.50;;;20.20;54.30;;;;;;5004970;28;20462;-71
2022/05/27 09:40:04;;;;;;;10.82;3.20;;;20.40;53.60;;;;;;5002926;28;20050;-71
2022/05/27 09:42:40;;;;;;;8.57;2.90;;;20.30;54.50;;;;;;5003437;28;20042;-70
2022/05/27 09:45:06;;;;;;;9.15;3.17;;;19.90;55.10;;;;;;5004645;28;20394;-71
2022/05/27 09:47:34;;;;;;;9.70;3.17;;;19.90;55.50;;;;;;4998427;28;20041;-71
2022/05/27 09:50:28;;;;;;;7.13;2.95;;;20.20;55.20;;;;;;4992893;28;20258;-70
2022/05/27 09:52:58;;;;;;;8.57;2.93;;;20.60;55.90;;;;;;4988613;28;20073;-71
2022/05/27 09:55:27;;;;;;;9.50;2.80;;;20.90;54.40;;;;;;4978272;28;20040;-69
2022/05/27 09:58:05;;;;;;;7.30;3.05;;;20.70;54.20;;;;;;4973684;28;20058;-72
2022/05/27 10:00:39;;;;;;;7.18;2.88;;;20.50;52.40;;;;;;4980033;28;20137;-71
2022/05/27 10:03:29;;;;;;;10.23;3.47;;;20.30;54.00;;;;;;4978632;28;20035;-70
2022/05/27 10:05:58;;;;;;;11.77;3.50;;;20.30;53.50;;;;;;4981928;28;20041;-70
2022/05/27 10:08:33;;;;;;;8.30;3.33;;;20.30;53.90;;;;;;4981018;28;20495;-70
2022/05/27 10:11:18;;;;;;;12.50;3.17;;;20.10;54.70;;;;;;4982578;28;20407;-72
2022/05/27 10:13:44;;;;;;;10.02;3.92;;;20.00;54.10;;;;;;4980769;28;20097;-71
2022/05/27 10:16:25;;;;;;;10.25;3.25;;;20.20;53.90;;;;;;4986410;28;20389;-71
2022/05/27 10:19:24;;;;;;;9.68;3.00;;;20.50;53.90;;;;;;4979567;28;20678;-71
2022/05/27 10:21:59;;;;;;;12.70;3.47;;;20.30;53.70;;;;;;4979837;28;20563;-70
2022/05/27 10:24:37;;;;;;;11.45;3.28;;;20.00;52.20;;;;;;4981146;28;20045;-70
2022/05/27 10:27:05;;;;;;;7.22;2.67;;;20.10;53.50;;;;;;4982645;28;20124;-70
2022/05/27 10:29:47;;;;;;;7.78;2.75;;;20.60;52.20;;;;;;4976451;28;20054;-70
2022/05/27 10:32:25;;;;;;;8.68;2.97;;;21.00;51.80;;;;;;4983274;28;20046;-69
2022/05/27 10:34:51;;;;;;;8.68;2.92;;;21.40;50.30;;;;;;4975354;28;20130;-69
2022/05/27 10:37:44;;;;;;;10.38;3.85;;;21.20;51.00;;;;;;4980274;28;20034;-70
2022/05/27 10:40:33;;;;;;;8.35;3.22;;;20.70;51.70;;;;;;4975103;28;20191;-72
2022/05/27 10:43:37;;;;;;;10.10;3.30;;;20.20;54.00;;;;;;4981521;28;20049;-70
2022/05/27 10:46:09;;;;;;;8.48;3.75;;;20.10;53.50;;;;;;5015705;28;20457;-71
2022/05/27 10:48:45;;;;;;;7.57;3.28;;;19.80;54.20;;;;;;5001579;28;20124;-71
2022/05/27 10:51:45;;;;;;;12.32;4.20;;;20.10;52.50;;;;;;4997772;28;20489;-71
2022/05/27 10:54:13;;;;;;;10.85;3.83;;;20.60;53.30;;;;;;5002584;28;20042;-72
2022/05/27 11:02:52;;;;;;;11.27;4.65;;;20.00;53.30;;;;;;4988081;28;20282;-72
2022/05/27 11:05:41;;;;;;;12.63;5.65;;;20.20;55.30;;;;;;4993437;28;20152;-71
2022/05/27 11:08:30;;;;;;;14.27;5.07;;;19.90;55.30;;;;;;4985589;28;20497;-70
2022/05/27 11:11:23;;;;;;;11.27;4.70;;;19.60;55.70;;;;;;4987466;28;20127;-69
2022/05/27 11:17:20;;;;;;;15.07;5.13;;;19.70;56.20;;;;;;4988451;28;20049;-70
2022/05/27 11:20:28;;;;;;;10.60;4.60;;;20.00;55.90;;;;;;4984745;28;20326;-73
2022/05/27 11:23:22;;;;;;;11.18;4.32;;;20.10;53.60;;;;;;4981455;28;20049;-69
2022/05/27 11:25:48;;;;;;;14.45;5.40;;;19.90;53.80;;;;;;4990733;28;20045;-72
2022/05/27 11:28:32;;;;;;;13.57;5.32;;;20.00;54.60;;;;;;5000190;28;20041;-70
2022/05/27 11:31:49;;;;;;;12.98;4.57;;;19.60;54.20;;;;;;4988403;28;20099;-71
2022/05/27 11:34:44;;;;;;;10.82;4.65;;;19.60;54.80;;;;;;4972642;28;20053;-71
2022/05/27 11:37:29;;;;;;;13.23;4.13;;;19.90;53.90;;;;;;5007340;28;20068;-71
2022/05/27 11:40:29;;;;;;;12.98;4.28;;;20.10;52.80;;;;;;4995827;28;20046;-71
2022/05/27 11:43:07;;;;;;;13.70;5.15;;;20.40;51.80;;;;;;5002289;28;20329;-71
2022/05/27 11:45:37;;;;;;;14.43;4.75;;;19.70;53.10;;;;;;5003859;28;20061;-71
2022/05/27 11:48:41;;;;;;;11.50;4.35;;;19.70;53.00;;;;;;4997482;28;20218;-72
2022/05/27 11:51:14;;;;;;;9.43;4.40;;;19.50;53.50;;;;;;4972951;28;20049;-72
2022/05/27 11:53:52;;;;;;;12.30;4.95;;;19.20;53.80;;;;;;4972485;28;20115;-70
2022/05/27 11:56:36;;;;;;;9.23;4.45;;;19.80;53.00;;;;;;4986217;28;20366;-71
2022/05/27 11:59:28;;;;;;;9.02;4.10;;;20.30;52.00;;;;;;4999811;28;20069;-71
2022/05/27 12:01:59;;;;;;;11.70;4.35;;;20.50;51.10;;;;;;5001935;28;20041;-73
2022/05/27 12:04:39;;;;;;;13.88;4.10;;;20.60;49.60;;;;;;4998467;28;20068;-71
2022/05/27 12:07:26;;;;;;;10.90;3.97;;;20.20;50.30;;;;;;4992242;28;20042;-73
2022/05/27 12:10:17;;;;;;;16.52;4.85;;;20.40;50.80;;;;;;4994829;28;20493;-71
2022/05/27 12:13:27;;;;;;;11.95;4.07;;;20.60;49.00;;;;;;4994641;28;20041;-71
2022/05/27 12:15:57;;;;;;;14.23;4.13;;;20.80;47.50;;;;;;4977422;28;20073;-70
2022/05/27 12:18:43;;;;;;;9.55;4.22;;;20.60;47.70;;;;;;4991607;28;20473;-69
2022/05/27 12:21:18;;;;;;;10.63;4.25;;;20.60;47.70;;;;;;4992588;28;20120;-71
2022/05/27 12:23:49;;;;;;;12.32;3.80;;;20.70;48.90;;;;;;4991804;28;20485;-70
2022/05/27 12:26:18;;;;;;;13.73;3.92;;;20.40;48.90;;;;;;4995011;28;20140;-71
2022/05/27 12:28:46;;;;;;;10.13;3.90;;;20.20;49.80;;;;;;4991907;28;20362;-69
2022/05/27 12:31:13;;;;;;;10.25;4.50;;;19.80;50.60;;;;;;4994564;28;20092;-71
2022/05/27 12:33:39;;;;;;;13.20;4.80;;;19.60;50.50;;;;;;4994572;28;20041;-71
2022/05/27 12:36:18;;;;;;;11.65;4.63;;;19.80;51.10;;;;;;4996184;28;20041;-73
2022/05/27 12:38:47;;;;;;;16.48;4.95;;;19.80;51.70;;;;;;4996766;28;20042;-70
2022/05/27 12:41:37;;;;;;;12.68;4.85;;;20.20;50.50;;;;;;4995231;28;20038;-70
2022/05/27 12:44:24;;;;;;;12.52;4.70;;;20.00;50.10;;;;;;4996207;28;20477;-71
2022/05/27 12:46:59;;;;;;;13.52;4.95;;;20.30;51.00;;;;;;4996831;28;20499;-72
2022/05/27 12:49:33;;;;;;;15.85;4.25;;;20.50;49.50;;;;;;4998294;28;20548;-70
2022/05/27 12:51:59;;;;;;;13.50;4.90;;;20.10;50.10;;;;;;5000807;28;20033;-70
2022/05/27 12:54:43;;;;;;;16.05;4.57;;;20.10;50.20;;;;;;5021837;28;20173;-73
2022/05/27 13:03:33;;;;;;;13.57;4.75;;;20.60;49.20;;;;;;4994466;28;20697;-73
2022/05/27 13:06:12;;;;;;;12.93;5.00;;;20.60;47.90;;;;;;5014294;28;20605;-70
2022/05/27 13:08:47;;;;;;;11.23;3.90;;;20.40;47.20;;;;;;5002081;28;20057;-70
2022/05/27 13:11:22;;;;;;;11.95;4.22;;;20.50;49.20;;;;;;5003972;28;20169;-72
2022/05/27 13:13:53;;;;;;;10.55;3.95;;;20.40;47.60;;;;;;4998483;28;20038;-73
2022/05/27 13:16:29;;;;;;;11.52;4.00;;;20.00;48.60;;;;;;4998283;28;20040;-71
2022/05/27 13:19:01;;;;;;;12.60;3.92;;;20.20;48.60;;;;;;5005362;28;20033;-71
2022/05/27 13:21:27;;;;;;;11.07;4.15;;;20.50;47.50;;;;;;4999688;28;20048;-71
2022/05/27 13:24:04;;;;;;;12.43;3.90;;;20.10;48.10;;;;;;4999465;28;20050;-72
2022/05/27 13:26:39;;;;;;;13.13;3.92;;;20.10;48.40;;;;;;4998568;28;20393;-71
2022/05/27 13:29:15;;;;;;;12.00;4.38;;;20.30;48.00;;;;;;4989001;28;20056;-71
2022/05/27 13:31:44;;;;;;;13.45;4.35;;;20.30;47.80;;;;;;4994828;28;20355;-70
2022/05/27 13:34:20;;;;;;;11.50;3.60;;;20.30;48.00;;;;;;4997653;28;20042;-71
2022/05/27 13:36:56;;;;;;;10.60;4.38;;;20.30;47.10;;;;;;4994823;28;20038;-72
2022/05/27 13:39:28;;;;;;;14.45;3.90;;;20.10;48.40;;;;;;5002054;28;20044;-71
2022/05/27 13:41:55;;;;;;;12.88;3.65;;;20.10;49.40;;;;;;5002872;28;20029;-69
2022/05/27 13:44:23;;;;;;;10.55;4.05;;;20.10;47.60;;;;;;4996889;28;20034;-69
2022/05/27 13:46:53;;;;;;;15.60;4.38;;;20.00;48.50;;;;;;4997951;28;20037;-71
2022/05/27 13:49:37;;;;;;;13.88;4.00;;;20.10;47.40;;;;;;4996901;28;20065;-72